createdAt,value
2018-08-20T00:01:23.389Z,20.10
2018-08-20T00:03:51.853Z,20.10
2018-08-20T00:06:20.284Z,20.10
2018-08-20T00:08:48.837Z,20.10
2018-08-20T00:11:17.269Z,20.00
2018-08-20T00:13:45.718Z,20.10
2018-08-20T00:16:14.161Z,20.00
2018-08-20T00:18:42.561Z,20.00
2018-08-20T00:21:11.021Z,20.00
2018-08-20T00:23:39.657Z,19.90
2018-08-20T00:26:08.174Z,19.90
2018-08-20T00:28:36.601Z,19.90
2018-08-20T00:31:05.073Z,19.90
2018-08-20T00:33:33.484Z,19.80
2018-08-20T00:36:01.920Z,19.90
2018-08-20T00:38:30.589Z,19.90
2018-08-20T00:40:59.053Z,19.90
2018-08-20T00:43:27.472Z,19.90
2018-08-20T00:45:56.157Z,19.80
2018-08-20T00:48:24.577Z,19.80
2018-08-20T00:50:53.002Z,19.70
2018-08-20T00:53:21.452Z,19.70
2018-08-20T00:55:49.886Z,19.70
2018-08-20T00:58:18.317Z,19.70
2018-08-20T01:00:46.773Z,19.70
2018-08-20T01:03:15.203Z,19.70
2018-08-20T01:05:43.649Z,19.70
2018-08-20T01:08:12.104Z,19.70
2018-08-20T01:10:40.566Z,19.70
2018-08-20T01:13:09.057Z,19.60
2018-08-20T01:15:37.473Z,19.70
2018-08-20T01:18:06.086Z,19.60
2018-08-20T01:20:34.946Z,19.60
2018-08-20T01:23:03.402Z,19.60
2018-08-20T01:25:31.875Z,19.60
2018-08-20T01:28:00.276Z,19.50
2018-08-20T01:30:28.710Z,19.50
2018-08-20T01:33:01.466Z,19.50
2018-08-20T01:35:29.897Z,19.50
2018-08-20T01:37:58.344Z,19.50
2018-08-20T01:40:26.760Z,19.50
2018-08-20T01:42:55.186Z,19.40
2018-08-20T01:45:23.640Z,19.40
2018-08-20T01:47:52.061Z,19.30
2018-08-20T01:50:20.482Z,19.30
2018-08-20T01:52:48.944Z,19.30
2018-08-20T01:55:17.367Z,19.30
2018-08-20T01:57:45.818Z,19.20
2018-08-20T02:00:14.233Z,19.30
2018-08-20T02:02:42.749Z,19.20
2018-08-20T02:05:11.233Z,19.20
2018-08-20T02:07:39.701Z,19.20
2018-08-20T02:10:08.273Z,19.20
2018-08-20T02:12:36.768Z,19.20
2018-08-20T02:15:05.457Z,19.20
2018-08-20T02:17:33.887Z,19.20
2018-08-20T02:20:02.348Z,19.20
2018-08-20T02:22:30.793Z,19.20
2018-08-20T02:24:59.406Z,19.20
2018-08-20T02:27:27.849Z,19.20
2018-08-20T02:29:56.538Z,19.20
2018-08-20T02:32:25.238Z,19.20
2018-08-20T02:34:53.671Z,19.10
2018-08-20T02:37:22.264Z,19.10
2018-08-20T02:39:50.670Z,19.10
2018-08-20T02:42:19.126Z,19.10
2018-08-20T02:44:47.548Z,19.10
2018-08-20T02:47:15.977Z,19.10
2018-08-20T02:49:44.445Z,19.10
2018-08-20T02:52:12.880Z,19.00
2018-08-20T02:54:41.326Z,19.00
2018-08-20T02:57:09.742Z,19.00
2018-08-20T02:59:38.164Z,19.00
2018-08-20T03:02:06.650Z,18.90
2018-08-20T03:04:35.055Z,18.90
2018-08-20T03:07:03.609Z,18.90
2018-08-20T03:09:32.098Z,18.90
2018-08-20T03:12:01.026Z,18.90
2018-08-20T03:14:29.474Z,18.80
2018-08-20T03:16:57.957Z,18.70
2018-08-20T03:19:26.418Z,18.70
2018-08-20T03:21:54.878Z,18.60
2018-08-20T03:24:23.351Z,18.60
2018-08-20T03:26:52.070Z,18.60
2018-08-20T03:29:20.822Z,18.60
2018-08-20T03:31:49.312Z,18.50
2018-08-20T03:34:17.786Z,18.50
2018-08-20T03:36:46.245Z,18.50
2018-08-20T03:39:15.280Z,18.50
2018-08-20T03:41:43.999Z,18.50
2018-08-20T03:44:12.506Z,18.50
2018-08-20T03:46:40.983Z,18.50
2018-08-20T03:49:09.482Z,18.40
2018-08-20T03:51:37.986Z,18.40
2018-08-20T03:54:06.445Z,18.40
2018-08-20T03:56:34.938Z,18.40
2018-08-20T03:59:03.405Z,18.30
2018-08-20T04:01:31.874Z,18.30
2018-08-20T04:04:00.327Z,18.30
2018-08-20T04:06:28.794Z,18.30
2018-08-20T04:08:57.264Z,18.30
2018-08-20T04:11:25.717Z,18.30
2018-08-20T04:13:54.206Z,18.30
2018-08-20T04:16:22.642Z,18.20
2018-08-20T04:18:55.311Z,18.20
2018-08-20T04:21:23.766Z,18.20
2018-08-20T04:23:52.207Z,18.10
2018-08-20T04:26:20.674Z,18.20
2018-08-20T04:28:49.121Z,18.20
2018-08-20T04:31:17.623Z,18.20
2018-08-20T04:33:46.061Z,18.20
2018-08-20T04:36:14.507Z,18.10
2018-08-20T04:38:42.997Z,18.10
2018-08-20T04:41:11.452Z,18.20
2018-08-20T04:43:39.919Z,18.20
2018-08-20T04:46:08.839Z,18.20
2018-08-20T04:48:38.429Z,18.20
2018-08-20T04:51:07.100Z,18.20
2018-08-20T04:53:35.374Z,18.20
2018-08-20T04:56:03.927Z,18.30
2018-08-20T04:58:32.391Z,18.30
2018-08-20T05:01:01.434Z,18.30
2018-08-20T05:03:29.874Z,18.50
2018-08-20T05:05:58.470Z,18.60
2018-08-20T05:08:26.931Z,19.00
2018-08-20T05:10:55.430Z,19.80
2018-08-20T05:13:24.007Z,20.40
2018-08-20T05:15:52.494Z,20.90
2018-08-20T05:18:20.959Z,21.20
2018-08-20T05:20:49.450Z,21.40
2018-08-20T05:23:18.155Z,21.50
2018-08-20T05:25:46.893Z,21.60
2018-08-20T05:28:15.354Z,21.80
2018-08-20T05:30:44.162Z,22.00
2018-08-20T05:33:12.691Z,22.20
2018-08-20T05:35:41.183Z,22.20
2018-08-20T05:38:10.779Z,22.30
2018-08-20T05:40:39.245Z,22.40
2018-08-20T05:43:07.887Z,22.50
2018-08-20T05:45:36.427Z,22.60
2018-08-20T05:48:05.094Z,22.80
2018-08-20T05:50:33.587Z,22.70
2018-08-20T05:53:02.406Z,22.80
2018-08-20T05:55:30.957Z,22.90
2018-08-20T05:57:59.470Z,23.00
2018-08-20T06:00:28.025Z,22.80
2018-08-20T06:02:56.503Z,22.70
2018-08-20T06:05:25.015Z,22.80
2018-08-20T06:07:53.540Z,23.10
2018-08-20T06:10:22.054Z,23.20
2018-08-20T06:12:50.559Z,23.30
2018-08-20T06:15:19.120Z,23.40
2018-08-20T06:17:47.518Z,23.30
2018-08-20T06:20:17.419Z,23.20
2018-08-20T06:22:46.542Z,23.10
2018-08-20T06:25:15.275Z,23.00
2018-08-20T06:27:44.063Z,23.00
2018-08-20T06:30:15.236Z,22.80
2018-08-20T06:32:43.801Z,22.70
2018-08-20T06:35:12.594Z,22.60
2018-08-20T06:37:41.503Z,22.40
2018-08-20T06:40:12.319Z,22.20
2018-08-20T06:42:41.082Z,22.00
2018-08-20T06:45:12.036Z,21.90
2018-08-20T06:47:40.943Z,21.90
2018-08-20T06:50:09.550Z,21.70
2018-08-20T06:52:38.249Z,21.70
2018-08-20T06:55:06.818Z,21.70
2018-08-20T06:57:35.393Z,21.60
2018-08-20T07:00:05.421Z,21.60
2018-08-20T07:02:34.190Z,21.60
2018-08-20T07:05:02.742Z,21.60
2018-08-20T07:07:31.301Z,21.40
2018-08-20T07:09:59.819Z,21.50
2018-08-20T07:12:28.367Z,21.50
2018-08-20T07:14:56.889Z,21.60
2018-08-20T07:17:25.475Z,21.70
2018-08-20T07:19:53.923Z,21.60
2018-08-20T07:22:23.036Z,21.70
2018-08-20T07:24:51.554Z,21.70
2018-08-20T07:27:20.145Z,21.60
2018-08-20T07:29:48.749Z,21.60
2018-08-20T07:32:17.254Z,21.70
2018-08-20T07:34:46.718Z,21.80
2018-08-20T07:37:17.358Z,21.90
2018-08-20T07:39:47.171Z,22.00
2018-08-20T07:42:15.674Z,21.90
2018-08-20T07:44:45.030Z,22.00
2018-08-20T07:47:13.633Z,22.00
2018-08-20T07:49:42.194Z,22.10
2018-08-20T07:52:13.345Z,22.10
2018-08-20T07:54:41.834Z,22.10
2018-08-20T07:57:11.063Z,22.20
2018-08-20T07:59:39.667Z,22.00
2018-08-20T08:02:08.714Z,22.10
2018-08-20T08:04:37.238Z,22.20
2018-08-20T08:07:05.946Z,22.30
2018-08-20T08:09:34.438Z,22.30
2018-08-20T08:12:03.223Z,22.20
2018-08-20T08:14:31.699Z,22.10
2018-08-20T08:17:00.264Z,22.30
2018-08-20T08:19:29.249Z,22.20
2018-08-20T08:21:57.816Z,22.30
2018-08-20T08:24:26.329Z,22.40
2018-08-20T08:26:55.055Z,22.40
2018-08-20T08:29:23.637Z,22.50
2018-08-20T08:31:52.387Z,22.60
2018-08-20T08:34:21.034Z,22.70
2018-08-20T08:36:49.590Z,22.70
2018-08-20T08:39:18.171Z,22.80
2018-08-20T08:41:46.920Z,22.80
2018-08-20T08:44:15.454Z,22.80
2018-08-20T08:46:44.699Z,22.80
2018-08-20T08:49:14.197Z,22.80
2018-08-20T08:51:43.311Z,22.70
2018-08-20T08:54:12.158Z,22.80
2018-08-20T08:56:40.816Z,22.80
2018-08-20T08:59:09.838Z,22.90
2018-08-20T09:01:38.931Z,23.00
2018-08-20T09:04:10.827Z,23.00
2018-08-20T09:06:39.641Z,23.10
2018-08-20T09:09:09.772Z,23.20
2018-08-20T09:11:39.030Z,23.30
2018-08-20T09:14:08.337Z,23.50
2018-08-20T09:16:37.280Z,23.30
2018-08-20T09:19:05.914Z,23.30
2018-08-20T09:21:34.645Z,23.20
2018-08-20T09:24:03.537Z,23.30
2018-08-20T09:26:33.280Z,23.30
2018-08-20T09:29:03.102Z,23.40
2018-08-20T09:34:33.100Z,23.70
2018-08-20T09:37:02.336Z,23.80
2018-08-20T09:39:31.333Z,23.70
2018-08-20T09:42:01.084Z,23.70
2018-08-20T09:44:30.167Z,23.70
2018-08-20T09:46:58.956Z,23.70
2018-08-20T09:49:28.947Z,23.70
2018-08-20T09:51:58.008Z,23.70
2018-08-20T09:54:26.818Z,23.70
2018-08-20T09:56:55.417Z,23.70
2018-08-20T09:59:23.962Z,23.90
2018-08-20T10:01:52.483Z,24.00
2018-08-20T10:04:22.018Z,24.10
2018-08-20T10:06:50.923Z,24.10
2018-08-20T10:09:19.441Z,24.20
2018-08-20T10:11:47.925Z,24.30
2018-08-20T10:14:16.418Z,24.30
2018-08-20T10:16:44.917Z,24.10
2018-08-20T10:19:13.427Z,24.20
2018-08-20T10:21:41.906Z,24.30
2018-08-20T10:24:10.383Z,24.60
2018-08-20T10:26:39.884Z,24.60
2018-08-20T10:29:08.411Z,24.40
2018-08-20T10:31:36.964Z,24.10
2018-08-20T10:34:05.626Z,24.20
2018-08-20T10:36:34.340Z,24.10
2018-08-20T10:39:04.172Z,24.10
2018-08-20T10:41:33.315Z,24.10
2018-08-20T10:44:07.843Z,24.00
2018-08-20T10:46:48.153Z,24.10
2018-08-20T10:49:20.996Z,24.10
2018-08-20T10:51:50.019Z,24.00
2018-08-20T10:54:19.961Z,24.00
2018-08-20T10:56:49.084Z,24.10
2018-08-20T10:59:17.717Z,24.20
2018-08-20T11:01:46.340Z,24.30
2018-08-20T11:04:15.692Z,24.50
2018-08-20T11:06:44.242Z,24.60
2018-08-20T11:09:12.754Z,24.80
2018-08-20T11:11:41.307Z,24.70
2018-08-20T11:14:09.948Z,24.70
2018-08-20T11:16:38.436Z,24.70
2018-08-20T11:19:06.943Z,24.70
2018-08-20T11:21:35.647Z,24.90
2018-08-20T11:24:04.198Z,24.80
2018-08-20T11:26:32.730Z,24.90
2018-08-20T11:29:02.091Z,25.00
2018-08-20T11:31:31.320Z,25.10
2018-08-20T11:33:59.834Z,25.30
2018-08-20T11:36:28.763Z,25.30
2018-08-20T11:38:57.227Z,25.30
2018-08-20T11:41:25.710Z,25.50
2018-08-20T11:43:54.186Z,25.50
2018-08-20T11:46:22.678Z,25.50
2018-08-20T11:48:51.481Z,25.50
2018-08-20T11:51:23.470Z,25.50
2018-08-20T11:59:52.068Z,25.50
2018-08-20T12:02:23.440Z,25.70
2018-08-20T12:04:52.888Z,25.80
2018-08-20T12:07:22.507Z,25.80
2018-08-20T12:09:51.198Z,25.70
2018-08-20T12:12:21.306Z,25.70
2018-08-20T12:14:49.755Z,25.80
2018-08-20T12:17:18.269Z,25.90
2018-08-20T12:19:46.800Z,25.80
2018-08-20T12:22:16.535Z,25.90
2018-08-20T12:24:48.758Z,25.90
2018-08-20T12:27:19.215Z,25.90
2018-08-20T12:29:47.718Z,25.80
2018-08-20T12:32:16.950Z,25.90
2018-08-20T12:34:45.858Z,25.80
2018-08-20T12:37:14.558Z,25.60
2018-08-20T12:39:44.190Z,25.50
2018-08-20T12:42:13.123Z,25.50
2018-08-20T12:44:41.724Z,25.50
2018-08-20T12:47:12.060Z,25.70
2018-08-20T12:49:40.835Z,25.90
2018-08-20T12:52:10.815Z,26.00
2018-08-20T12:54:39.514Z,26.10
2018-08-20T12:57:09.575Z,26.30
2018-08-20T12:59:38.265Z,26.50
2018-08-20T13:02:07.106Z,26.60
2018-08-20T13:04:37.086Z,26.70
2018-08-20T13:07:06.014Z,26.50
2018-08-20T13:09:37.742Z,26.50
2018-08-20T13:12:07.275Z,26.60
2018-08-20T13:14:35.811Z,26.70
2018-08-20T13:17:04.503Z,26.80
2018-08-20T13:19:35.114Z,26.90
2018-08-20T13:22:03.634Z,26.80
2018-08-20T13:24:32.254Z,26.90
2018-08-20T13:27:01.077Z,27.20
2018-08-20T13:29:29.978Z,27.30
2018-08-20T13:31:58.530Z,27.40
2018-08-20T13:34:27.111Z,27.40
2018-08-20T13:36:55.641Z,27.30
2018-08-20T13:39:24.117Z,27.20
2018-08-20T13:41:53.098Z,27.10
2018-08-20T13:44:21.954Z,27.10
2018-08-20T13:46:50.631Z,27.40
2018-08-20T13:49:19.134Z,27.50
2018-08-20T13:51:47.637Z,27.50
2018-08-20T13:54:16.149Z,27.60
2018-08-20T13:56:44.859Z,27.70
2018-08-20T13:59:13.304Z,27.80
2018-08-20T14:01:41.826Z,28.00
2018-08-20T14:04:10.390Z,27.60
2018-08-20T14:06:39.044Z,27.80
2018-08-20T14:09:08.723Z,27.90
2018-08-20T14:11:37.211Z,27.80
2018-08-20T14:14:06.102Z,27.40
2018-08-20T14:16:34.973Z,27.00
2018-08-20T14:19:03.510Z,26.80
2018-08-20T14:21:32.026Z,26.50
2018-08-20T14:24:00.530Z,26.50
2018-08-20T14:26:29.031Z,26.30
2018-08-20T14:28:57.512Z,26.30
2018-08-20T14:31:26.011Z,26.20
2018-08-20T14:33:54.807Z,26.20
2018-08-20T14:36:23.277Z,26.10
2018-08-20T14:38:51.758Z,26.10
2018-08-20T14:41:20.280Z,26.00
2018-08-20T14:43:48.779Z,25.90
2018-08-20T14:46:20.322Z,25.90
2018-08-20T14:48:49.041Z,25.90
2018-08-20T14:51:17.579Z,25.90
2018-08-20T14:53:46.067Z,26.20
2018-08-20T14:56:14.741Z,26.40
2018-08-20T14:58:43.213Z,26.60
2018-08-20T15:01:11.684Z,26.90
2018-08-20T15:03:40.145Z,26.90
2018-08-20T15:06:08.879Z,26.80
2018-08-20T15:08:38.874Z,26.80
2018-08-20T15:11:07.650Z,26.60
2018-08-20T15:13:36.766Z,26.50
2018-08-20T15:16:06.908Z,26.30
2018-08-20T15:18:35.497Z,26.20
2018-08-20T15:21:04.010Z,26.20
2018-08-20T15:23:32.490Z,26.20
2018-08-20T15:26:00.989Z,26.30
2018-08-20T15:28:29.442Z,26.10
2018-08-20T15:30:57.939Z,26.20
2018-08-20T15:33:26.438Z,26.10
2018-08-20T15:35:54.930Z,26.10
2018-08-20T15:38:23.398Z,26.00
2018-08-20T15:40:52.366Z,26.00
2018-08-20T15:43:20.993Z,25.90
2018-08-20T15:45:49.744Z,25.90
2018-08-20T15:48:18.298Z,25.90
2018-08-20T15:50:46.907Z,25.90
2018-08-20T15:53:15.340Z,26.00
2018-08-20T15:55:43.778Z,26.00
2018-08-20T15:58:12.511Z,26.00
2018-08-20T16:00:41.006Z,26.00
2018-08-20T16:03:09.554Z,26.00
2018-08-20T16:05:38.093Z,26.10
2018-08-20T16:08:06.745Z,26.00
2018-08-20T16:10:35.414Z,25.90
2018-08-20T16:13:04.057Z,25.90
2018-08-20T16:15:32.429Z,25.90
2018-08-20T16:18:01.082Z,25.90
2018-08-20T16:20:29.927Z,25.80
2018-08-20T16:22:58.369Z,25.70
2018-08-20T16:25:26.823Z,25.70
2018-08-20T16:27:55.255Z,25.50
2018-08-20T16:30:23.982Z,25.40
2018-08-20T16:32:52.502Z,25.30
2018-08-20T16:35:20.967Z,25.30
2018-08-20T16:37:49.442Z,25.30
2018-08-20T16:40:17.930Z,25.20
2018-08-20T16:42:46.390Z,25.10
2018-08-20T16:45:14.846Z,25.20
2018-08-20T16:47:43.342Z,25.10
2018-08-20T16:50:13.045Z,25.10
2018-08-20T16:52:42.177Z,25.10
2018-08-20T16:55:11.023Z,25.10
2018-08-20T16:57:39.602Z,25.00
2018-08-20T17:00:10.158Z,25.00
2018-08-20T17:02:41.594Z,24.90
2018-08-20T17:05:12.511Z,24.90
2018-08-20T17:07:41.052Z,24.80
2018-08-20T17:10:11.057Z,24.80
2018-08-20T17:12:40.031Z,24.70
2018-08-20T17:15:17.957Z,24.60
2018-08-20T17:17:46.473Z,24.60
2018-08-20T17:20:15.633Z,24.50
2018-08-20T17:22:44.081Z,24.50
2018-08-20T17:25:12.587Z,24.40
2018-08-20T17:27:44.415Z,24.30
2018-08-20T17:30:13.502Z,24.30
2018-08-20T17:32:42.434Z,24.20
2018-08-20T17:35:10.935Z,24.20
2018-08-20T17:37:39.406Z,24.20
2018-08-20T17:40:09.796Z,24.20
2018-08-20T17:42:38.434Z,24.10
2018-08-20T17:45:08.611Z,24.00
2018-08-20T17:47:39.956Z,23.90
2018-08-20T17:50:23.766Z,23.90
2018-08-20T17:52:52.312Z,23.90
2018-08-20T17:55:20.737Z,23.80
2018-08-20T17:57:49.412Z,23.80
2018-08-20T18:00:35.846Z,23.70
2018-08-20T18:03:04.410Z,23.70
2018-08-20T18:05:32.860Z,23.60
2018-08-20T18:08:01.290Z,23.60
2018-08-20T18:10:29.757Z,23.50
2018-08-20T18:12:58.662Z,23.40
2018-08-20T18:15:27.121Z,23.40
2018-08-20T18:17:55.568Z,23.30
2018-08-20T18:20:24.020Z,23.20
2018-08-20T18:22:52.734Z,23.10
2018-08-20T18:25:22.166Z,23.10
2018-08-20T18:27:50.723Z,23.00
2018-08-20T18:30:19.298Z,23.00
2018-08-20T18:32:47.762Z,22.90
2018-08-20T18:35:22.497Z,22.80
2018-08-20T18:37:51.804Z,22.70
2018-08-20T18:40:20.256Z,22.60
2018-08-20T18:42:48.770Z,22.50
2018-08-20T18:45:17.270Z,22.50
2018-08-20T18:47:45.874Z,22.40
2018-08-20T18:50:14.371Z,22.40
2018-08-20T18:52:42.819Z,22.40
2018-08-20T18:55:11.294Z,22.30
2018-08-20T18:57:39.763Z,22.30
2018-08-20T19:00:12.752Z,22.30
2018-08-20T19:02:44.846Z,22.20
2018-08-20T19:05:14.871Z,22.10
2018-08-20T19:07:43.682Z,22.10
2018-08-20T19:10:25.048Z,22.00
2018-08-20T19:12:53.597Z,22.00
2018-08-20T19:15:46.531Z,21.90
2018-08-20T19:18:21.019Z,21.90
2018-08-20T19:20:49.810Z,21.80
2018-08-20T19:23:18.811Z,21.80
2018-08-20T19:25:47.505Z,21.70
2018-08-20T19:28:20.981Z,21.70
2018-08-20T19:30:50.062Z,21.70
2018-08-20T19:33:25.946Z,21.70
2018-08-20T19:35:55.028Z,21.70
2018-08-20T19:38:23.558Z,21.70
2018-08-20T19:41:03.633Z,21.60
2018-08-20T19:43:37.506Z,21.60
2018-08-20T19:46:06.279Z,21.60
2018-08-20T19:48:38.746Z,21.50
2018-08-20T19:51:10.078Z,21.50
2018-08-20T19:53:38.573Z,21.40
2018-08-20T19:56:11.770Z,21.40
2018-08-20T19:58:43.277Z,21.40
2018-08-20T20:01:13.676Z,21.40
2018-08-20T20:03:44.821Z,21.40
2018-08-20T20:06:13.997Z,21.30
2018-08-20T20:08:42.610Z,21.30
2018-08-20T20:11:34.132Z,21.30
2018-08-20T20:14:03.823Z,21.30
2018-08-20T20:17:04.425Z,21.30
2018-08-20T20:19:34.036Z,21.30
2018-08-20T20:22:02.531Z,21.30
2018-08-20T20:24:32.401Z,21.30
2018-08-20T20:27:02.790Z,21.30
2018-08-20T20:29:31.383Z,21.20
2018-08-20T20:31:59.866Z,21.20
2018-08-20T20:34:28.402Z,21.20
2018-08-20T20:36:56.886Z,21.20
2018-08-20T20:39:25.386Z,21.20
2018-08-20T20:41:53.864Z,21.20
2018-08-20T20:44:22.346Z,21.10
2018-08-20T20:46:51.142Z,21.10
2018-08-20T20:49:19.823Z,21.00
2018-08-20T20:51:48.316Z,21.00
2018-08-20T20:54:16.790Z,21.00
2018-08-20T20:56:45.221Z,21.00
2018-08-20T20:59:13.694Z,20.90
2018-08-20T21:01:42.160Z,20.90
2018-08-20T21:04:10.639Z,20.80
2018-08-20T21:06:41.864Z,20.80
2018-08-20T21:09:11.888Z,20.70
2018-08-20T21:11:40.406Z,20.70
2018-08-20T21:14:08.978Z,20.70
2018-08-20T21:16:37.806Z,20.70
2018-08-20T21:19:06.350Z,20.70
2018-08-20T21:21:34.848Z,20.70
2018-08-20T21:24:06.386Z,20.70
2018-08-20T21:26:35.107Z,20.60
2018-08-20T21:29:03.645Z,20.60
2018-08-20T21:31:37.572Z,20.60
2018-08-20T21:34:06.066Z,20.60
2018-08-20T21:36:34.521Z,20.60
2018-08-20T21:39:03.036Z,20.60
2018-08-20T21:41:31.553Z,20.60
2018-08-20T21:44:00.022Z,20.60
2018-08-20T21:46:28.758Z,20.60
2018-08-20T21:48:57.273Z,20.60
2018-08-20T21:51:30.205Z,20.60
2018-08-20T21:53:59.062Z,20.60
2018-08-20T21:57:02.674Z,20.60
2018-08-20T21:59:31.153Z,20.60
2018-08-20T22:01:59.654Z,20.60
2018-08-20T22:04:30.000Z,20.50
2018-08-20T22:06:59.414Z,20.40
2018-08-20T22:09:27.892Z,20.30
2018-08-20T22:11:57.898Z,20.30
2018-08-20T22:14:26.802Z,20.30
2018-08-20T22:16:55.260Z,20.20
2018-08-20T22:19:23.822Z,20.20
2018-08-20T22:21:52.371Z,20.20
2018-08-20T22:24:20.882Z,20.10
2018-08-20T22:26:56.530Z,20.10
2018-08-20T22:29:28.308Z,20.10
2018-08-20T22:31:56.945Z,20.00
2018-08-20T22:34:27.883Z,20.00
2018-08-20T22:37:00.986Z,20.00
2018-08-20T22:39:29.462Z,19.90
2018-08-20T22:41:57.946Z,19.90
2018-08-20T22:44:26.439Z,19.80
2018-08-20T22:46:54.937Z,19.80
2018-08-20T22:49:23.394Z,19.80
2018-08-20T22:51:52.137Z,19.80
2018-08-20T22:54:20.605Z,19.80
2018-08-20T22:56:49.078Z,19.80
2018-08-20T22:59:17.529Z,19.80
2018-08-20T23:01:46.082Z,19.80
2018-08-20T23:04:14.546Z,19.70
2018-08-20T23:06:43.032Z,19.70
2018-08-20T23:09:24.726Z,19.60
2018-08-20T23:11:53.610Z,19.60
2018-08-20T23:14:22.326Z,19.50
2018-08-20T23:16:51.773Z,19.50
2018-08-20T23:19:20.266Z,19.60
2018-08-20T23:21:49.585Z,19.50
2018-08-20T23:24:18.402Z,19.50
2018-08-20T23:26:47.192Z,19.60
2018-08-20T23:29:15.657Z,19.60
2018-08-20T23:31:44.133Z,19.60
2018-08-20T23:34:13.757Z,19.60
2018-08-20T23:36:42.582Z,19.60
2018-08-20T23:39:14.779Z,19.60
2018-08-20T23:41:43.275Z,19.60
2018-08-20T23:44:12.874Z,19.50
2018-08-20T23:46:43.195Z,19.60
2018-08-20T23:49:11.900Z,19.60
2018-08-20T23:51:40.662Z,19.60
2018-08-20T23:54:10.273Z,19.50
2018-08-20T23:56:38.802Z,19.40
2018-08-20T23:59:07.294Z,19.40
